sensor_id;sensor_type;location;lat;lon;timestamp;P1;durP1;ratioP1;P2;durP2;ratioP2
12603;SDS011;6367;52.508;13.284;2022-12-07T00:01:15;9.37;;;7.47;;
12603;SDS011;6367;52.508;13.284;2022-12-07T00:03:45;12.40;;;8.57;;
12603;SDS011;6367;52.508;13.284;2022-12-07T00:06:13;11.53;;;8.60;;
12603;SDS011;6367;52.508;13.284;2022-12-07T00:08:39;9.07;;;7.10;;
12603;SDS011;6367;52.508;13.284;2022-12-07T00:11:06;10.20;;;8.17;;
12603;SDS011;6367;52.508;13.284;2022-12-07T00:13:40;10.43;;;8.57;;
12603;SDS011;6367;52.508;13.284;2022-12-07T00:16:11;8.73;;;7.00;;
12603;SDS011;6367;52.508;13.284;2022-12-07T00:18:42;9.20;;;7.53;;
12603;SDS011;6367;52.508;13.284;2022-12-07T00:21:15;10.20;;;7.67;;
12603;SDS011;6367;52.508;13.284;2022-12-07T00:23:44;8.87;;;7.53;;
12603;SDS011;6367;52.508;13.284;2022-12-07T00:26:11;8.40;;;6.77;;
12603;SDS011;6367;52.508;13.284;2022-12-07T00:28:38;9.40;;;7.80;;
12603;SDS011;6367;52.508;13.284;2022-12-07T00:31:05;9.07;;;7.60;;
12603;SDS011;6367;52.508;13.284;2022-12-07T00:33:33;8.10;;;7.27;;
12603;SDS011;6367;52.508;13.284;2022-12-07T00:35:59;7.90;;;6.97;;
12603;SDS011;6367;52.508;13.284;2022-12-07T00:38:27;7.97;;;6.30;;
12603;SDS011;6367;52.508;13.284;2022-12-07T00:40:58;7.93;;;7.10;;
12603;SDS011;6367;52.508;13.284;2022-12-07T00:43:25;7.23;;;6.07;;
12603;SDS011;6367;52.508;13.284;2022-12-07T00:45:51;7.80;;;6.50;;
12603;SDS011;6367;52.508;13.284;2022-12-07T00:48:17;7.67;;;6.70;;
12603;SDS011;6367;52.508;13.284;2022-12-07T00:50:43;6.97;;;6.13;;
12603;SDS011;6367;52.508;13.284;2022-12-07T00:53:09;6.97;;;5.43;;
12603;SDS011;6367;52.508;13.284;2022-12-07T00:55:35;9.20;;;6.23;;
12603;SDS011;6367;52.508;13.284;2022-12-07T00:58:01;6.67;;;5.83;;
12603;SDS011;6367;52.508;13.284;2022-12-07T01:00:27;5.77;;;5.17;;
12603;SDS011;6367;52.508;13.284;2022-12-07T01:02:53;8.10;;;6.57;;
12603;SDS011;6367;52.508;13.284;2022-12-07T01:05:19;6.97;;;6.00;;
12603;SDS011;6367;52.508;13.284;2022-12-07T01:07:44;6.20;;;5.40;;
12603;SDS011;6367;52.508;13.284;2022-12-07T01:10:11;6.93;;;5.93;;
12603;SDS011;6367;52.508;13.284;2022-12-07T01:12:37;6.80;;;5.60;;
12603;SDS011;6367;52.508;13.284;2022-12-07T01:15:03;5.70;;;4.90;;
12603;SDS011;6367;52.508;13.284;2022-12-07T01:17:30;6.87;;;6.27;;
12603;SDS011;6367;52.508;13.284;2022-12-07T01:19:56;6.90;;;5.27;;
12603;SDS011;6367;52.508;13.284;2022-12-07T01:22:21;8.50;;;5.23;;
12603;SDS011;6367;52.508;13.284;2022-12-07T01:24:47;7.40;;;5.80;;
12603;SDS011;6367;52.508;13.284;2022-12-07T01:27:13;6.87;;;5.60;;
12603;SDS011;6367;52.508;13.284;2022-12-07T01:29:39;6.30;;;5.37;;
12603;SDS011;6367;52.508;13.284;2022-12-07T01:32:05;6.43;;;4.80;;
12603;SDS011;6367;52.508;13.284;2022-12-07T01:34:31;5.83;;;5.33;;
12603;SDS011;6367;52.508;13.284;2022-12-07T01:36:56;6.90;;;5.23;;
12603;SDS011;6367;52.508;13.284;2022-12-07T01:39:22;5.67;;;5.17;;
12603;SDS011;6367;52.508;13.284;2022-12-07T01:41:48;5.77;;;5.17;;
12603;SDS011;6367;52.508;13.284;2022-12-07T01:46:45;6.23;;;5.00;;
12603;SDS011;6367;52.508;13.284;2022-12-07T01:49:14;5.00;;;4.50;;
12603;SDS011;6367;52.508;13.284;2022-12-07T01:51:43;5.80;;;5.20;;
12603;SDS011;6367;52.508;13.284;2022-12-07T01:54:11;5.10;;;4.33;;
12603;SDS011;6367;52.508;13.284;2022-12-07T01:56:40;4.87;;;4.10;;
12603;SDS011;6367;52.508;13.284;2022-12-07T01:59:11;6.07;;;4.87;;
12603;SDS011;6367;52.508;13.284;2022-12-07T02:01:37;7.03;;;4.63;;
12603;SDS011;6367;52.508;13.284;2022-12-07T02:04:03;4.93;;;4.53;;
12603;SDS011;6367;52.508;13.284;2022-12-07T02:06:30;6.73;;;5.00;;
12603;SDS011;6367;52.508;13.284;2022-12-07T02:08:56;7.73;;;5.03;;
12603;SDS011;6367;52.508;13.284;2022-12-07T02:11:22;5.53;;;4.87;;
12603;SDS011;6367;52.508;13.284;2022-12-07T02:13:48;5.40;;;4.90;;
12603;SDS011;6367;52.508;13.284;2022-12-07T02:31:55;5.67;;;5.03;;
12603;SDS011;6367;52.508;13.284;2022-12-07T02:37:22;7.33;;;5.10;;
12603;SDS011;6367;52.508;13.284;2022-12-07T02:40:07;7.40;;;5.90;;
12603;SDS011;6367;52.508;13.284;2022-12-07T02:42:47;6.10;;;5.33;;
12603;SDS011;6367;52.508;13.284;2022-12-07T02:45:17;7.20;;;5.50;;
12603;SDS011;6367;52.508;13.284;2022-12-07T02:47:47;7.50;;;5.30;;
12603;SDS011;6367;52.508;13.284;2022-12-07T02:50:17;7.23;;;5.93;;
12603;SDS011;6367;52.508;13.284;2022-12-07T02:52:46;6.40;;;5.20;;
12603;SDS011;6367;52.508;13.284;2022-12-07T02:55:12;10.63;;;6.20;;
12603;SDS011;6367;52.508;13.284;2022-12-07T03:00:40;5.80;;;5.10;;
12603;SDS011;6367;52.508;13.284;2022-12-07T03:03:30;6.53;;;5.70;;
12603;SDS011;6367;52.508;13.284;2022-12-07T03:06:16;6.70;;;5.80;;
12603;SDS011;6367;52.508;13.284;2022-12-07T03:09:13;8.97;;;6.40;;
12603;SDS011;6367;52.508;13.284;2022-12-07T03:11:48;9.67;;;6.97;;
12603;SDS011;6367;52.508;13.284;2022-12-07T03:14:24;8.77;;;6.33;;
12603;SDS011;6367;52.508;13.284;2022-12-07T03:17:08;10.23;;;7.23;;
12603;SDS011;6367;52.508;13.284;2022-12-07T03:19:41;8.83;;;6.80;;
12603;SDS011;6367;52.508;13.284;2022-12-07T03:22:10;12.00;;;8.23;;
12603;SDS011;6367;52.508;13.284;2022-12-07T03:24:50;10.53;;;7.97;;
12603;SDS011;6367;52.508;13.284;2022-12-07T03:27:21;8.87;;;7.00;;
12603;SDS011;6367;52.508;13.284;2022-12-07T03:29:56;10.30;;;7.73;;
12603;SDS011;6367;52.508;13.284;2022-12-07T03:32:27;11.63;;;8.43;;
12603;SDS011;6367;52.508;13.284;2022-12-07T03:37:34;11.00;;;7.50;;
12603;SDS011;6367;52.508;13.284;2022-12-07T03:40:07;11.83;;;8.10;;
12603;SDS011;6367;52.508;13.284;2022-12-07T03:42:36;14.33;;;8.50;;
12603;SDS011;6367;52.508;13.284;2022-12-07T03:45:02;11.93;;;7.90;;
12603;SDS011;6367;52.508;13.284;2022-12-07T03:47:31;12.27;;;8.10;;
12603;SDS011;6367;52.508;13.284;2022-12-07T03:50:10;9.60;;;7.83;;
12603;SDS011;6367;52.508;13.284;2022-12-07T03:53:03;10.80;;;8.30;;
12603;SDS011;6367;52.508;13.284;2022-12-07T03:55:35;10.90;;;8.00;;
12603;SDS011;6367;52.508;13.284;2022-12-07T03:58:05;11.20;;;8.27;;
12603;SDS011;6367;52.508;13.284;2022-12-07T04:00:36;13.10;;;9.20;;
12603;SDS011;6367;52.508;13.284;2022-12-07T04:03:02;11.90;;;8.63;;
12603;SDS011;6367;52.508;13.284;2022-12-07T04:05:28;11.23;;;8.13;;
12603;SDS011;6367;52.508;13.284;2022-12-07T04:07:54;14.27;;;9.80;;
12603;SDS011;6367;52.508;13.284;2022-12-07T04:10:19;15.67;;;11.00;;
12603;SDS011;6367;52.508;13.284;2022-12-07T04:12:45;12.80;;;9.47;;
12603;SDS011;6367;52.508;13.284;2022-12-07T04:15:11;13.30;;;9.37;;
12603;SDS011;6367;52.508;13.284;2022-12-07T04:17:37;13.47;;;9.87;;
12603;SDS011;6367;52.508;13.284;2022-12-07T04:20:03;13.93;;;10.03;;
12603;SDS011;6367;52.508;13.284;2022-12-07T04:22:30;16.27;;;10.97;;
12603;SDS011;6367;52.508;13.284;2022-12-07T04:24:55;13.50;;;9.03;;
12603;SDS011;6367;52.508;13.284;2022-12-07T04:27:21;15.13;;;10.63;;
12603;SDS011;6367;52.508;13.284;2022-12-07T04:29:46;16.40;;;10.73;;
12603;SDS011;6367;52.508;13.284;2022-12-07T04:32:12;15.40;;;10.83;;
12603;SDS011;6367;52.508;13.284;2022-12-07T04:34:38;13.93;;;10.37;;
12603;SDS011;6367;52.508;13.284;2022-12-07T04:37:03;14.93;;;10.47;;
12603;SDS011;6367;52.508;13.284;2022-12-07T04:39:30;15.73;;;11.23;;
12603;SDS011;6367;52.508;13.284;2022-12-07T04:41:57;19.53;;;12.33;;
12603;SDS011;6367;52.508;13.284;2022-12-07T04:44:25;18.77;;;12.97;;
12603;SDS011;6367;52.508;13.284;2022-12-07T04:46:52;17.33;;;12.50;;
12603;SDS011;6367;52.508;13.284;2022-12-07T04:49:18;19.73;;;13.40;;
12603;SDS011;6367;52.508;13.284;2022-12-07T04:51:44;15.57;;;11.60;;
12603;SDS011;6367;52.508;13.284;2022-12-07T04:54:11;20.50;;;14.13;;
12603;SDS011;6367;52.508;13.284;2022-12-07T04:56:37;21.10;;;13.03;;
12603;SDS011;6367;52.508;13.284;2022-12-07T04:59:03;18.33;;;12.63;;
12603;SDS011;6367;52.508;13.284;2022-12-07T05:01:29;22.63;;;16.40;;
12603;SDS011;6367;52.508;13.284;2022-12-07T05:03:55;20.10;;;14.20;;
12603;SDS011;6367;52.508;13.284;2022-12-07T05:06:21;21.73;;;14.97;;
12603;SDS011;6367;52.508;13.284;2022-12-07T05:08:47;21.87;;;15.00;;
12603;SDS011;6367;52.508;13.284;2022-12-07T05:11:13;21.37;;;14.50;;
12603;SDS011;6367;52.508;13.284;2022-12-07T05:13:59;19.33;;;13.37;;
12603;SDS011;6367;52.508;13.284;2022-12-07T05:16:25;21.90;;;14.70;;
12603;SDS011;6367;52.508;13.284;2022-12-07T05:18:51;21.60;;;13.97;;
12603;SDS011;6367;52.508;13.284;2022-12-07T05:21:16;21.17;;;14.10;;
12603;SDS011;6367;52.508;13.284;2022-12-07T05:23:43;20.60;;;15.20;;
12603;SDS011;6367;52.508;13.284;2022-12-07T05:26:08;25.63;;;14.93;;
12603;SDS011;6367;52.508;13.284;2022-12-07T05:28:34;22.30;;;13.90;;
12603;SDS011;6367;52.508;13.284;2022-12-07T05:31:00;21.30;;;15.40;;
12603;SDS011;6367;52.508;13.284;2022-12-07T05:33:26;20.70;;;14.73;;
12603;SDS011;6367;52.508;13.284;2022-12-07T05:35:51;21.27;;;15.17;;
12603;SDS011;6367;52.508;13.284;2022-12-07T05:38:17;24.20;;;15.90;;
12603;SDS011;6367;52.508;13.284;2022-12-07T05:40:42;19.80;;;13.63;;
12603;SDS011;6367;52.508;13.284;2022-12-07T05:43:08;22.07;;;15.93;;
12603;SDS011;6367;52.508;13.284;2022-12-07T05:45:34;20.63;;;14.37;;
12603;SDS011;6367;52.508;13.284;2022-12-07T05:47:59;22.37;;;15.40;;
12603;SDS011;6367;52.508;13.284;2022-12-07T05:50:25;22.20;;;15.30;;
12603;SDS011;6367;52.508;13.284;2022-12-07T05:52:51;20.57;;;14.47;;
12603;SDS011;6367;52.508;13.284;2022-12-07T05:55:16;28.10;;;16.90;;
12603;SDS011;6367;52.508;13.284;2022-12-07T05:57:42;22.70;;;13.83;;
12603;SDS011;6367;52.508;13.284;2022-12-07T06:00:30;22.30;;;14.90;;
12603;SDS011;6367;52.508;13.284;2022-12-07T06:02:56;24.60;;;16.83;;
12603;SDS011;6367;52.508;13.284;2022-12-07T06:05:22;20.37;;;15.23;;
12603;SDS011;6367;52.508;13.284;2022-12-07T06:07:49;21.60;;;14.93;;
12603;SDS011;6367;52.508;13.284;2022-12-07T06:10:14;24.53;;;16.20;;
12603;SDS011;6367;52.508;13.284;2022-12-07T06:12:40;23.73;;;16.03;;
12603;SDS011;6367;52.508;13.284;2022-12-07T06:15:08;26.33;;;16.40;;
12603;SDS011;6367;52.508;13.284;2022-12-07T06:17:35;25.90;;;16.97;;
12603;SDS011;6367;52.508;13.284;2022-12-07T06:20:01;22.20;;;15.10;;
12603;SDS011;6367;52.508;13.284;2022-12-07T06:22:27;24.90;;;16.87;;
12603;SDS011;6367;52.508;13.284;2022-12-07T06:24:53;20.60;;;14.07;;
12603;SDS011;6367;52.508;13.284;2022-12-07T06:27:19;23.73;;;16.17;;
12603;SDS011;6367;52.508;13.284;2022-12-07T06:29:44;24.50;;;15.03;;
12603;SDS011;6367;52.508;13.284;2022-12-07T06:32:10;22.67;;;14.20;;
12603;SDS011;6367;52.508;13.284;2022-12-07T06:34:37;20.80;;;14.37;;
12603;SDS011;6367;52.508;13.284;2022-12-07T06:37:02;20.87;;;13.63;;
12603;SDS011;6367;52.508;13.284;2022-12-07T06:39:28;22.60;;;16.03;;
12603;SDS011;6367;52.508;13.284;2022-12-07T06:41:55;21.30;;;15.40;;
12603;SDS011;6367;52.508;13.284;2022-12-07T06:44:21;20.90;;;14.33;;
12603;SDS011;6367;52.508;13.284;2022-12-07T06:46:48;24.47;;;15.70;;
12603;SDS011;6367;52.508;13.284;2022-12-07T06:49:15;21.70;;;16.63;;
12603;SDS011;6367;52.508;13.284;2022-12-07T06:51:40;23.10;;;15.70;;
12603;SDS011;6367;52.508;13.284;2022-12-07T06:54:10;24.40;;;15.77;;
12603;SDS011;6367;52.508;13.284;2022-12-07T06:56:37;24.30;;;16.27;;
12603;SDS011;6367;52.508;13.284;2022-12-07T06:59:03;23.93;;;16.30;;
12603;SDS011;6367;52.508;13.284;2022-12-07T07:01:31;27.33;;;16.10;;
12603;SDS011;6367;52.508;13.284;2022-12-07T07:03:57;25.93;;;16.97;;
12603;SDS011;6367;52.508;13.284;2022-12-07T07:06:22;23.77;;;17.07;;
12603;SDS011;6367;52.508;13.284;2022-12-07T07:08:48;20.83;;;15.73;;
12603;SDS011;6367;52.508;13.284;2022-12-07T07:11:14;28.20;;;17.37;;
12603;SDS011;6367;52.508;13.284;2022-12-07T07:13:40;22.80;;;16.63;;
12603;SDS011;6367;52.508;13.284;2022-12-07T07:16:06;27.17;;;17.37;;
12603;SDS011;6367;52.508;13.284;2022-12-07T07:18:32;23.80;;;17.00;;
12603;SDS011;6367;52.508;13.284;2022-12-07T07:20:58;24.47;;;16.37;;
12603;SDS011;6367;52.508;13.284;2022-12-07T07:23:23;21.63;;;15.07;;
12603;SDS011;6367;52.508;13.284;2022-12-07T07:25:49;21.73;;;14.80;;
12603;SDS011;6367;52.508;13.284;2022-12-07T07:28:16;19.50;;;14.47;;
12603;SDS011;6367;52.508;13.284;2022-12-07T07:30:42;21.03;;;13.80;;
12603;SDS011;6367;52.508;13.284;2022-12-07T07:33:08;25.97;;;14.47;;
12603;SDS011;6367;52.508;13.284;2022-12-07T07:35:35;24.43;;;14.23;;
12603;SDS011;6367;52.508;13.284;2022-12-07T07:38:01;26.03;;;14.10;;
12603;SDS011;6367;52.508;13.284;2022-12-07T07:40:27;18.27;;;13.73;;
12603;SDS011;6367;52.508;13.284;2022-12-07T07:42:54;21.63;;;13.57;;
12603;SDS011;6367;52.508;13.284;2022-12-07T07:45:21;20.70;;;12.27;;
12603;SDS011;6367;52.508;13.284;2022-12-07T07:47:49;19.53;;;12.40;;
12603;SDS011;6367;52.508;13.284;2022-12-07T07:50:15;19.40;;;11.57;;
12603;SDS011;6367;52.508;13.284;2022-12-07T07:52:41;16.73;;;10.40;;
12603;SDS011;6367;52.508;13.284;2022-12-07T07:55:07;14.40;;;10.27;;
12603;SDS011;6367;52.508;13.284;2022-12-07T07:57:36;13.37;;;8.90;;
12603;SDS011;6367;52.508;13.284;2022-12-07T08:00:09;17.03;;;9.13;;
12603;SDS011;6367;52.508;13.284;2022-12-07T08:02:37;13.43;;;8.43;;
12603;SDS011;6367;52.508;13.284;2022-12-07T08:05:02;13.90;;;7.77;;
12603;SDS011;6367;52.508;13.284;2022-12-07T08:07:28;13.53;;;8.03;;
12603;SDS011;6367;52.508;13.284;2022-12-07T08:09:54;9.10;;;7.23;;
12603;SDS011;6367;52.508;13.284;2022-12-07T08:12:19;17.23;;;9.03;;
12603;SDS011;6367;52.508;13.284;2022-12-07T08:14:45;12.17;;;8.20;;
12603;SDS011;6367;52.508;13.284;2022-12-07T08:17:11;13.07;;;7.80;;
12603;SDS011;6367;52.508;13.284;2022-12-07T08:19:37;10.07;;;6.90;;
12603;SDS011;6367;52.508;13.284;2022-12-07T08:22:03;9.23;;;5.80;;
12603;SDS011;6367;52.508;13.284;2022-12-07T08:24:28;8.37;;;6.43;;
12603;SDS011;6367;52.508;13.284;2022-12-07T08:26:54;5.57;;;4.43;;
12603;SDS011;6367;52.508;13.284;2022-12-07T08:29:20;7.00;;;5.10;;
12603;SDS011;6367;52.508;13.284;2022-12-07T08:31:45;8.40;;;5.20;;
12603;SDS011;6367;52.508;13.284;2022-12-07T08:34:11;4.83;;;3.40;;
12603;SDS011;6367;52.508;13.284;2022-12-07T08:36:37;10.83;;;4.10;;
12603;SDS011;6367;52.508;13.284;2022-12-07T08:39:03;5.33;;;3.87;;
12603;SDS011;6367;52.508;13.284;2022-12-07T08:41:29;3.43;;;2.40;;
12603;SDS011;6367;52.508;13.284;2022-12-07T08:43:55;3.03;;;2.37;;
12603;SDS011;6367;52.508;13.284;2022-12-07T08:46:25;2.80;;;2.50;;
12603;SDS011;6367;52.508;13.284;2022-12-07T08:51:36;5.60;;;2.27;;
12603;SDS011;6367;52.508;13.284;2022-12-07T08:54:04;2.70;;;2.10;;
12603;SDS011;6367;52.508;13.284;2022-12-07T08:56:33;3.93;;;2.73;;
12603;SDS011;6367;52.508;13.284;2022-12-07T08:58:59;2.43;;;2.20;;
12603;SDS011;6367;52.508;13.284;2022-12-07T09:01:25;2.30;;;2.10;;
12603;SDS011;6367;52.508;13.284;2022-12-07T09:03:51;2.70;;;2.50;;
12603;SDS011;6367;52.508;13.284;2022-12-07T09:06:17;4.20;;;2.20;;
12603;SDS011;6367;52.508;13.284;2022-12-07T09:08:44;1.90;;;1.80;;
12603;SDS011;6367;52.508;13.284;2022-12-07T09:11:15;4.83;;;1.80;;
12603;SDS011;6367;52.508;13.284;2022-12-07T09:13:41;1.90;;;1.80;;
12603;SDS011;6367;52.508;13.284;2022-12-07T09:16:06;3.00;;;1.90;;
12603;SDS011;6367;52.508;13.284;2022-12-07T09:18:32;2.40;;;2.20;;
12603;SDS011;6367;52.508;13.284;2022-12-07T09:20:58;2.70;;;2.50;;
12603;SDS011;6367;52.508;13.284;2022-12-07T09:23:24;2.30;;;1.90;;
12603;SDS011;6367;52.508;13.284;2022-12-07T09:25:49;1.87;;;1.77;;
12603;SDS011;6367;52.508;13.284;2022-12-07T09:28:15;4.00;;;2.17;;
12603;SDS011;6367;52.508;13.284;2022-12-07T09:30:47;3.20;;;2.10;;
12603;SDS011;6367;52.508;13.284;2022-12-07T09:33:13;2.63;;;2.37;;
12603;SDS011;6367;52.508;13.284;2022-12-07T09:35:49;2.60;;;2.10;;
12603;SDS011;6367;52.508;13.284;2022-12-07T09:38:16;2.40;;;2.20;;
12603;SDS011;6367;52.508;13.284;2022-12-07T09:40:42;2.43;;;2.00;;
12603;SDS011;6367;52.508;13.284;2022-12-07T09:43:17;2.60;;;1.97;;
12603;SDS011;6367;52.508;13.284;2022-12-07T09:45:45;2.60;;;2.33;;
12603;SDS011;6367;52.508;13.284;2022-12-07T09:48:19;1.77;;;1.67;;
12603;SDS011;6367;52.508;13.284;2022-12-07T09:50:48;1.90;;;1.80;;
12603;SDS011;6367;52.508;13.284;2022-12-07T09:53:36;2.40;;;2.20;;
12603;SDS011;6367;52.508;13.284;2022-12-07T09:56:02;2.27;;;2.03;;
12603;SDS011;6367;52.508;13.284;2022-12-07T09:58:29;2.20;;;2.00;;
12603;SDS011;6367;52.508;13.284;2022-12-07T10:01:00;2.00;;;1.90;;
12603;SDS011;6367;52.508;13.284;2022-12-07T10:03:32;2.37;;;2.20;;
12603;SDS011;6367;52.508;13.284;2022-12-07T10:05:57;2.20;;;2.00;;
12603;SDS011;6367;52.508;13.284;2022-12-07T10:08:24;4.20;;;2.57;;
12603;SDS011;6367;52.508;13.284;2022-12-07T10:10:51;2.50;;;2.30;;
12603;SDS011;6367;52.508;13.284;2022-12-07T10:13:21;2.50;;;2.30;;
12603;SDS011;6367;52.508;13.284;2022-12-07T10:16:01;2.10;;;2.00;;
12603;SDS011;6367;52.508;13.284;2022-12-07T10:21:06;3.80;;;2.20;;
12603;SDS011;6367;52.508;13.284;2022-12-07T10:23:38;3.00;;;2.30;;
12603;SDS011;6367;52.508;13.284;2022-12-07T10:28:59;3.83;;;2.00;;
12603;SDS011;6367;52.508;13.284;2022-12-07T10:31:26;3.20;;;2.53;;
12603;SDS011;6367;52.508;13.284;2022-12-07T10:33:53;3.33;;;2.27;;
12603;SDS011;6367;52.508;13.284;2022-12-07T10:36:23;2.80;;;2.40;;
12603;SDS011;6367;52.508;13.284;2022-12-07T10:39:13;2.47;;;2.27;;
12603;SDS011;6367;52.508;13.284;2022-12-07T10:41:59;3.03;;;2.73;;
12603;SDS011;6367;52.508;13.284;2022-12-07T10:44:29;3.00;;;2.73;;
12603;SDS011;6367;52.508;13.284;2022-12-07T11:00:27;3.37;;;3.10;;
12603;SDS011;6367;52.508;13.284;2022-12-07T11:03:09;4.60;;;3.73;;
12603;SDS011;6367;52.508;13.284;2022-12-07T11:09:03;3.20;;;3.00;;
12603;SDS011;6367;52.508;13.284;2022-12-07T11:17:06;3.20;;;2.83;;
12603;SDS011;6367;52.508;13.284;2022-12-07T11:38:12;5.23;;;3.63;;
12603;SDS011;6367;52.508;13.284;2022-12-07T11:40:42;3.87;;;3.30;;
12603;SDS011;6367;52.508;13.284;2022-12-07T11:45:58;3.93;;;3.13;;
12603;SDS011;6367;52.508;13.284;2022-12-07T11:48:38;4.70;;;2.80;;
12603;SDS011;6367;52.508;13.284;2022-12-07T11:51:10;3.33;;;2.90;;
12603;SDS011;6367;52.508;13.284;2022-12-07T11:53:44;3.37;;;2.97;;
12603;SDS011;6367;52.508;13.284;2022-12-07T11:56:26;4.90;;;2.70;;
12603;SDS011;6367;52.508;13.284;2022-12-07T11:58:57;3.77;;;2.90;;
12603;SDS011;6367;52.508;13.284;2022-12-07T12:01:38;3.93;;;3.07;;
12603;SDS011;6367;52.508;13.284;2022-12-07T12:06:34;3.60;;;2.60;;
12603;SDS011;6367;52.508;13.284;2022-12-07T12:22:59;6.50;;;2.10;;
12603;SDS011;6367;52.508;13.284;2022-12-07T12:25:35;4.93;;;2.53;;
12603;SDS011;6367;52.508;13.284;2022-12-07T12:33:46;7.23;;;2.23;;
12603;SDS011;6367;52.508;13.284;2022-12-07T12:47:02;4.20;;;2.00;;
12603;SDS011;6367;52.508;13.284;2022-12-07T12:52:49;3.70;;;2.33;;
12603;SDS011;6367;52.508;13.284;2022-12-07T12:55:22;3.03;;;1.90;;
12603;SDS011;6367;52.508;13.284;2022-12-07T13:00:45;4.93;;;2.63;;
12603;SDS011;6367;52.508;13.284;2022-12-07T13:03:28;4.10;;;2.13;;
12603;SDS011;6367;52.508;13.284;2022-12-07T13:08:50;4.90;;;1.97;;
12603;SDS011;6367;52.508;13.284;2022-12-07T13:11:34;5.90;;;2.13;;
12603;SDS011;6367;52.508;13.284;2022-12-07T13:19:57;4.40;;;2.57;;
12603;SDS011;6367;52.508;13.284;2022-12-07T13:27:35;5.27;;;2.33;;
12603;SDS011;6367;52.508;13.284;2022-12-07T13:30:07;6.87;;;2.63;;
12603;SDS011;6367;52.508;13.284;2022-12-07T13:32:41;3.20;;;2.30;;
12603;SDS011;6367;52.508;13.284;2022-12-07T13:37:56;6.23;;;2.50;;
12603;SDS011;6367;52.508;13.284;2022-12-07T13:40:22;3.07;;;2.70;;
12603;SDS011;6367;52.508;13.284;2022-12-07T13:42:56;4.03;;;2.10;;
12603;SDS011;6367;52.508;13.284;2022-12-07T13:45:24;5.80;;;2.87;;
12603;SDS011;6367;52.508;13.284;2022-12-07T13:48:32;5.40;;;2.50;;
12603;SDS011;6367;52.508;13.284;2022-12-07T13:51:01;6.00;;;2.57;;
12603;SDS011;6367;52.508;13.284;2022-12-07T13:53:29;6.03;;;2.77;;
12603;SDS011;6367;52.508;13.284;2022-12-07T13:55:58;11.23;;;3.40;;
12603;SDS011;6367;52.508;13.284;2022-12-07T13:58:26;4.90;;;2.67;;
12603;SDS011;6367;52.508;13.284;2022-12-07T14:00:55;4.60;;;1.80;;
12603;SDS011;6367;52.508;13.284;2022-12-07T14:03:32;3.00;;;2.13;;
12603;SDS011;6367;52.508;13.284;2022-12-07T14:08:42;3.90;;;2.17;;
12603;SDS011;6367;52.508;13.284;2022-12-07T14:11:18;3.60;;;1.63;;
12603;SDS011;6367;52.508;13.284;2022-12-07T14:19:00;10.13;;;2.93;;
12603;SDS011;6367;52.508;13.284;2022-12-07T14:21:34;4.50;;;2.40;;
12603;SDS011;6367;52.508;13.284;2022-12-07T14:26:35;3.30;;;2.20;;
12603;SDS011;6367;52.508;13.284;2022-12-07T14:31:53;3.80;;;2.40;;
12603;SDS011;6367;52.508;13.284;2022-12-07T14:34:21;5.53;;;2.10;;
12603;SDS011;6367;52.508;13.284;2022-12-07T14:36:47;5.80;;;2.03;;
12603;SDS011;6367;52.508;13.284;2022-12-07T14:39:13;5.03;;;2.63;;
12603;SDS011;6367;52.508;13.284;2022-12-07T14:41:39;3.97;;;2.03;;
12603;SDS011;6367;52.508;13.284;2022-12-07T14:44:20;5.00;;;2.40;;
12603;SDS011;6367;52.508;13.284;2022-12-07T14:46:47;6.90;;;2.60;;
12603;SDS011;6367;52.508;13.284;2022-12-07T14:49:14;3.00;;;1.90;;
12603;SDS011;6367;52.508;13.284;2022-12-07T14:51:41;7.23;;;2.03;;
12603;SDS011;6367;52.508;13.284;2022-12-07T14:54:12;6.23;;;1.90;;
12603;SDS011;6367;52.508;13.284;2022-12-07T14:56:41;3.50;;;1.50;;
12603;SDS011;6367;52.508;13.284;2022-12-07T14:59:08;8.13;;;2.07;;
12603;SDS011;6367;52.508;13.284;2022-12-07T15:01:34;6.80;;;2.13;;
12603;SDS011;6367;52.508;13.284;2022-12-07T15:04:00;7.67;;;1.90;;
12603;SDS011;6367;52.508;13.284;2022-12-07T15:06:26;3.00;;;1.60;;
12603;SDS011;6367;52.508;13.284;2022-12-07T15:08:51;5.30;;;2.10;;
12603;SDS011;6367;52.508;13.284;2022-12-07T15:11:17;6.83;;;1.77;;
12603;SDS011;6367;52.508;13.284;2022-12-07T15:13:43;8.00;;;1.70;;
12603;SDS011;6367;52.508;13.284;2022-12-07T15:16:27;4.73;;;1.90;;
12603;SDS011;6367;52.508;13.284;2022-12-07T15:18:53;4.77;;;1.60;;
12603;SDS011;6367;52.508;13.284;2022-12-07T15:21:19;6.80;;;1.57;;
12603;SDS011;6367;52.508;13.284;2022-12-07T15:23:45;5.30;;;1.70;;
12603;SDS011;6367;52.508;13.284;2022-12-07T15:26:12;3.47;;;1.70;;
12603;SDS011;6367;52.508;13.284;2022-12-07T15:28:38;8.67;;;2.20;;
12603;SDS011;6367;52.508;13.284;2022-12-07T15:31:14;5.30;;;1.77;;
12603;SDS011;6367;52.508;13.284;2022-12-07T15:33:41;6.70;;;1.93;;
12603;SDS011;6367;52.508;13.284;2022-12-07T15:36:07;10.33;;;1.83;;
12603;SDS011;6367;52.508;13.284;2022-12-07T15:38:36;3.67;;;1.73;;
12603;SDS011;6367;52.508;13.284;2022-12-07T15:41:02;7.47;;;2.50;;
12603;SDS011;6367;52.508;13.284;2022-12-07T15:43:28;2.93;;;1.77;;
12603;SDS011;6367;52.508;13.284;2022-12-07T15:46:12;6.33;;;1.70;;
12603;SDS011;6367;52.508;13.284;2022-12-07T15:48:40;3.30;;;1.87;;
12603;SDS011;6367;52.508;13.284;2022-12-07T15:51:06;6.20;;;2.00;;
12603;SDS011;6367;52.508;13.284;2022-12-07T15:53:34;4.00;;;1.77;;
12603;SDS011;6367;52.508;13.284;2022-12-07T15:56:00;6.77;;;1.90;;
12603;SDS011;6367;52.508;13.284;2022-12-07T15:58:26;6.30;;;1.90;;
12603;SDS011;6367;52.508;13.284;2022-12-07T16:00:53;11.33;;;2.00;;
12603;SDS011;6367;52.508;13.284;2022-12-07T16:03:19;4.30;;;2.37;;
12603;SDS011;6367;52.508;13.284;2022-12-07T16:05:51;6.30;;;1.90;;
12603;SDS011;6367;52.508;13.284;2022-12-07T16:08:18;6.67;;;2.20;;
12603;SDS011;6367;52.508;13.284;2022-12-07T16:10:44;5.33;;;1.50;;
12603;SDS011;6367;52.508;13.284;2022-12-07T16:13:10;7.97;;;1.93;;
12603;SDS011;6367;52.508;13.284;2022-12-07T16:15:40;4.50;;;1.70;;
12603;SDS011;6367;52.508;13.284;2022-12-07T16:18:06;4.73;;;1.60;;
12603;SDS011;6367;52.508;13.284;2022-12-07T16:20:32;3.77;;;2.10;;
12603;SDS011;6367;52.508;13.284;2022-12-07T16:22:57;4.60;;;2.20;;
12603;SDS011;6367;52.508;13.284;2022-12-07T16:25:23;2.83;;;1.60;;
12603;SDS011;6367;52.508;13.284;2022-12-07T16:27:49;5.80;;;2.20;;
12603;SDS011;6367;52.508;13.284;2022-12-07T16:30:15;4.77;;;1.87;;
12603;SDS011;6367;52.508;13.284;2022-12-07T16:32:41;6.43;;;2.10;;
12603;SDS011;6367;52.508;13.284;2022-12-07T16:35:07;4.10;;;1.80;;
12603;SDS011;6367;52.508;13.284;2022-12-07T16:37:33;2.93;;;1.90;;
12603;SDS011;6367;52.508;13.284;2022-12-07T16:39:59;3.10;;;1.77;;
12603;SDS011;6367;52.508;13.284;2022-12-07T16:42:25;2.87;;;1.40;;
12603;SDS011;6367;52.508;13.284;2022-12-07T16:44:51;4.23;;;1.90;;
12603;SDS011;6367;52.508;13.284;2022-12-07T16:47:17;7.83;;;1.90;;
12603;SDS011;6367;52.508;13.284;2022-12-07T16:49:43;2.63;;;1.90;;
12603;SDS011;6367;52.508;13.284;2022-12-07T16:52:08;3.93;;;2.00;;
12603;SDS011;6367;52.508;13.284;2022-12-07T16:54:35;6.43;;;2.63;;
12603;SDS011;6367;52.508;13.284;2022-12-07T16:57:01;11.93;;;2.90;;
12603;SDS011;6367;52.508;13.284;2022-12-07T16:59:26;5.87;;;2.27;;
12603;SDS011;6367;52.508;13.284;2022-12-07T17:01:52;6.70;;;2.30;;
12603;SDS011;6367;52.508;13.284;2022-12-07T17:04:17;5.67;;;2.13;;
12603;SDS011;6367;52.508;13.284;2022-12-07T17:06:43;4.57;;;2.10;;
12603;SDS011;6367;52.508;13.284;2022-12-07T17:09:09;2.37;;;1.83;;
12603;SDS011;6367;52.508;13.284;2022-12-07T17:11:36;6.00;;;2.10;;
12603;SDS011;6367;52.508;13.284;2022-12-07T17:14:02;5.40;;;2.17;;
12603;SDS011;6367;52.508;13.284;2022-12-07T17:16:47;4.50;;;1.90;;